Flight Track Log - Related Links

Times and Time Zones

All times are in EDT time to prevent confusion due to time zone crossing. See the SKW5550 flight status page for this flight to view local times or setup timezone preferences in your user account.

Time Position Orientation Groundspeed Altitude Reporting Facility
EDT Latitude Longitude Course Direction KTS MPH feet Rate Location/Type
Sun 09:44:33 AM 44.5053 -109.0567 142° Southeast 153 176 5,900  Level Salt Lake Center
Sun 09:45:00 AM 43.9993 -108.4958 156° South  Level Estimated
Sun 09:45:34 AM 44.4542 -109.0778 196° South 256 295 7,900  Level Salt Lake Center
Sun 09:46:00 AM 43.9036 -108.4000 142° Southeast  Level Estimated
Sun 09:46:35 AM 44.4697 -109.0008 74° East 247 284 9,300  Level Salt Lake Center
Sun 09:47:00 AM 43.7927 -108.3444 160° South  Level FlightAware Approximate
Sun 09:47:36 AM 44.5375 -108.9672 19° North 250 288 12,100  Level Salt Lake Center
Sun 09:48:00 AM 43.6973 -108.2483 144° Southeast  Level Estimated
Sun 09:48:37 AM 44.5272 -108.8519 97° East 303 349 14,200  Level Salt Lake Center
Sun 09:49:00 AM 43.6019 -108.1526 142° Southeast  Level Estimated
Sun 09:49:37 AM 44.4503 -108.7703 143° Southeast 341 392 16,600  Level Salt Lake Center
Sun 09:50:38 AM 44.3686 -108.6975 147° Southeast 348 400 18,500 1,918 Climbing Salt Lake Center
Sun 09:51:39 AM 44.2847 -108.6222 147° Southeast 355 409 20,500 1,820 Climbing Salt Lake Center
Sun 09:52:40 AM 44.1992 -108.5461 147° Southeast 363 418 22,200 1,475 Climbing Salt Lake Center
Sun 09:53:41 AM 44.1100 -108.4689 148° Southeast 374 430 23,500 1,279 Climbing Salt Lake Center
Sun 09:54:42 AM 44.0186 -108.3872 147° Southeast 389 448 24,800 1,131 Climbing Salt Lake Center
Sun 09:55:43 AM 43.9047 -108.2889 148° Southeast 402 463 25,800 1,033 Climbing Salt Lake Center
Sun 09:56:44 AM 43.8072 -108.2025 147° Southeast 415 478 26,900 934 Climbing Salt Lake Center
Sun 09:57:45 AM 43.7058 -108.1169 149° Southeast 426 490 27,700 689 Climbing Salt Lake Center
Sun 09:58:46 AM 43.6036 -108.0247 147° Southeast 440 506 28,300 639 Climbing Salt Lake Center
Sun 09:59:47 AM 43.4978 -107.9344 148° Southeast 448 516 29,000 639 Climbing Salt Lake Center
Sun 10:00:48 AM 43.3903 -107.8436 148° Southeast 454 522 29,600 492 Climbing Salt Lake Center
Sun 10:01:49 AM 43.2800 -107.7492 148° Southeast 467 537 30,000 590 Climbing Salt Lake Center
Sun 10:02:50 AM 43.1694 -107.6536 148° Southeast 471 542 30,800 492 Climbing Salt Lake Center
Sun 10:03:51 AM 43.0583 -107.5597 148° Southeast 472 543 31,000 98 Climbing Salt Lake Center
Sun 10:04:52 AM 42.9483 -107.4669 148° Southeast 468 539 31,000  Level Salt Lake Center
Sun 10:05:53 AM 42.8369 -107.3731 148° Southeast 458 527 31,000  Level Salt Lake Center
Sun 10:06:45 AM 42.7333 -107.2856 148° Southeast 457 526 31,000  Level Denver Center
Sun 10:07:46 AM 42.6239 -107.1944 149° Southeast 459 528 31,000  Level Denver Center
Sun 10:08:47 AM 42.5050 -107.0953 148° Southeast 465 535 31,000  Level Denver Center
Sun 10:09:48 AM 42.3978 -107.0061 148° Southeast 470 541 31,000  Level Denver Center
Sun 10:10:50 AM 42.2906 -106.9175 149° Southeast 471 542 31,000  Level Denver Center
Sun 10:11:51 AM 42.1669 -106.8172 149° Southeast 466 536 31,000  Level Denver Center
Sun 10:12:52 AM 42.0611 -106.7292 148° Southeast 467 537 31,000  Level Denver Center
Sun 10:13:53 AM 41.9547 -106.6328 146° Southeast 478 550 31,000  Level Denver Center
Sun 10:14:55 AM 41.8272 -106.5172 146° Southeast 492 566 31,000  Level Denver Center
Sun 10:15:56 AM 41.7131 -106.4164 147° Southeast 499 574 31,000  Level Denver Center
Sun 10:16:58 AM 41.5853 -106.3014 146° Southeast 498 573 31,000  Level Denver Center
Sun 10:17:59 AM 41.4772 -106.2050 146° Southeast 491 565 31,000  Level Denver Center
Sun 10:19:00 AM 41.3719 -106.1128 147° Southeast 478 550 31,000  Level Denver Center
Sun 10:20:02 AM 41.2478 -106.0028 146° Southeast 481 554 31,000  Level Denver Center
Sun 10:21:03 AM 41.1403 -105.9097 147° Southeast 483 556 31,000 -537 Level Denver Center
Sun 10:22:05 AM 41.0136 -105.7964 146° Southeast 492 566 29,900 -1,210 Descending Denver Center
Sun 10:23:07 AM 40.9125 -105.7092 147° Southeast 474 545 28,500 -1,415 Descending Denver Center
Sun 10:24:08 AM 40.8094 -105.6203 147° Southeast 449 517 27,000 -1,463 Descending Denver Center
Sun 10:25:10 AM 40.7100 -105.5353 147° Southeast 432 497 25,500 -1,463 Descending Denver Center
Sun 10:26:11 AM 40.6144 -105.4508 146° Southeast 417 480 24,000 -1,707 Descending Denver Center
Sun 10:27:13 AM 40.5306 -105.3086 128° Southeast 412 474 22,000 -1,742 Descending Denver Center
Sun 10:28:15 AM 40.4589 -105.2081 133° Southeast 399 459 20,400 -1,561 Descending Denver Center
Sun 10:29:16 AM 40.3678 -105.1367 149° Southeast 356 410 18,800 -1,512 Descending Denver Center
Sun 10:30:18 AM 40.2817 -105.0681 149° Southeast 359 413 17,300 -1,452 Descending Denver Center
Sun 10:31:20 AM 40.1844 -105.0542 174° South 352 405 15,800 -1,548 Descending Denver Center
Sun 10:32:22 AM 40.0881 -105.0650 185° South 323 372 14,100 -1,561 Descending Denver Center
Sun 10:33:23 AM 40.0056 -105.0781 187° South 302 348 12,600 -1,512 Descending Denver Center
Sun 10:34:25 AM 39.9186 -105.0642 173° South 304 350 11,000 -1,500 Descending Denver Center
Sun 10:35:27 AM 39.8561 -105.0028 143° Southeast 290 334 9,500 -1,016 Descending Denver Center
Sun 10:36:29 AM 39.8414 -104.9147 102° East 250 288 8,900 -1,016 Descending Denver Center
Sun 10:37:31 AM 39.8414 -104.8333 90° East 214 246 7,400 -1,317 Descending Denver Center
Sun 10:38:32 AM 39.8414 -104.7831 90° East 146 168 6,200 -976 Descending Denver Center
Sun 10:39:34 AM 39.8406 -104.7325 91° East 133 153 5,400 -435 Descending Denver Center
Sun 10:40:36 AM 39.8417 -104.6889 88° East 130 150 5,300 -97 Descending Denver Center

Login

Don't have an account? Register now (free) for customized features, flight alerts, and more!